Time;durP1;ratioP1;P1;durP2;ratioP2;P2;SDS_P1;SDS_P2;PMS_P1;PMS_P2;Temp;Humidity;BMP_temperature;BMP_pressure;BME280_temperature;BME280_humidity;BME280_pressure;Samples;Min_cycle;Max_cycle;Signal;HPM_P1;HPM_P2
2021/10/30 00:01:13;;;;;;;14.38;9.35;;;4.40;97.50;;;;;;4989920;28;20030;-71
2021/10/30 00:03:38;;;;;;;13.13;8.93;;;4.40;97.60;;;;;;4988118;28;20097;-70
2021/10/30 00:06:04;;;;;;;15.05;9.80;;;4.30;97.60;;;;;;4992371;28;20050;-72
2021/10/30 00:08:30;;;;;;;16.70;10.02;;;4.30;97.60;;;;;;4983178;28;20034;-72
2021/10/30 00:10:57;;;;;;;14.50;9.25;;;4.30;97.60;;;;;;4980879;28;20027;-71
2021/10/30 00:13:23;;;;;;;14.43;10.13;;;4.30;97.70;;;;;;4976685;28;20023;-71
2021/10/30 00:15:49;;;;;;;14.00;9.10;;;4.30;97.70;;;;;;4990323;28;20022;-70
2021/10/30 00:18:14;;;;;;;17.70;10.93;;;4.30;97.70;;;;;;4980400;28;20027;-71
2021/10/30 00:20:40;;;;;;;15.23;10.40;;;4.30;97.60;;;;;;4988456;28;20038;-69
2021/10/30 00:23:05;;;;;;;13.18;9.73;;;4.20;97.50;;;;;;4978013;28;20141;-71
2021/10/30 00:25:31;;;;;;;13.80;9.68;;;4.10;97.50;;;;;;4990934;28;20108;-71
2021/10/30 00:27:56;;;;;;;13.63;9.77;;;4.10;97.50;;;;;;4982085;28;20090;-72
2021/10/30 00:30:22;;;;;;;13.45;9.60;;;4.00;97.50;;;;;;4982324;28;20029;-71
2021/10/30 00:32:48;;;;;;;13.73;9.77;;;4.00;97.60;;;;;;4985174;28;20471;-71
2021/10/30 00:35:13;;;;;;;13.25;9.90;;;3.90;97.50;;;;;;4984896;28;20055;-71
2021/10/30 00:37:39;;;;;;;12.68;9.38;;;3.80;97.50;;;;;;4976464;28;20022;-71
2021/10/30 00:40:06;;;;;;;12.45;9.45;;;3.80;97.50;;;;;;4993734;28;20038;-71
2021/10/30 00:42:32;;;;;;;13.90;9.05;;;3.70;97.50;;;;;;4975262;28;20383;-70
2021/10/30 00:44:57;;;;;;;13.07;9.68;;;3.70;97.60;;;;;;4974940;28;20038;-68
2021/10/30 00:47:23;;;;;;;13.00;9.13;;;3.60;97.60;;;;;;4987118;28;20038;-71
2021/10/30 00:49:48;;;;;;;11.23;8.57;;;3.60;97.60;;;;;;4992303;28;20026;-71
2021/10/30 00:52:15;;;;;;;12.35;8.60;;;3.60;97.60;;;;;;4984761;28;20029;-71
2021/10/30 00:54:44;;;;;;;11.20;8.38;;;3.50;97.60;;;;;;4988715;28;20470;-71
2021/10/30 00:57:11;;;;;;;13.63;8.93;;;3.60;97.60;;;;;;4975734;28;20042;-71
2021/10/30 00:59:38;;;;;;;12.48;9.05;;;3.50;97.70;;;;;;4992983;28;20029;-71
2021/10/30 01:02:04;;;;;;;13.85;9.63;;;3.60;97.70;;;;;;4989349;28;20688;-72
2021/10/30 01:04:30;;;;;;;13.60;9.00;;;3.60;97.70;;;;;;4977278;28;20041;-71
2021/10/30 01:06:58;;;;;;;14.25;9.13;;;3.60;97.80;;;;;;4977746;28;20109;-69
2021/10/30 01:09:24;;;;;;;23.27;9.68;;;3.70;97.90;;;;;;4983382;28;20027;-71
2021/10/30 01:11:53;;;;;;;13.25;8.70;;;3.70;97.90;;;;;;4992452;28;20033;-71
2021/10/30 01:14:20;;;;;;;12.18;8.65;;;3.70;97.80;;;;;;4990695;28;20026;-71
2021/10/30 01:16:47;;;;;;;13.68;9.38;;;3.70;97.80;;;;;;4983523;28;20022;-71
2021/10/30 01:19:13;;;;;;;12.55;9.02;;;3.70;97.70;;;;;;4991187;28;20164;-70
2021/10/30 01:21:39;;;;;;;12.35;9.23;;;3.70;97.70;;;;;;4992132;28;20034;-70
2021/10/30 01:24:07;;;;;;;11.07;8.48;;;3.70;97.80;;;;;;4991002;28;20034;-70
2021/10/30 01:26:33;;;;;;;11.18;8.48;;;3.70;97.80;;;;;;4974232;28;20497;-69
2021/10/30 01:29:02;;;;;;;13.00;9.23;;;3.70;97.70;;;;;;4987886;28;20118;-71
2021/10/30 01:31:28;;;;;;;13.05;9.00;;;3.60;97.70;;;;;;4976021;28;20019;-71
2021/10/30 01:33:54;;;;;;;13.48;8.73;;;3.60;97.70;;;;;;4972853;28;20054;-71
2021/10/30 01:36:21;;;;;;;13.15;8.75;;;3.60;97.70;;;;;;4988145;28;20445;-71
2021/10/30 01:38:48;;;;;;;11.77;8.05;;;3.60;97.80;;;;;;4991742;28;20034;-71
2021/10/30 01:41:14;;;;;;;11.80;8.30;;;3.60;97.80;;;;;;4974059;28;20113;-71
2021/10/30 01:43:40;;;;;;;11.35;8.35;;;3.60;97.70;;;;;;4990377;28;20125;-70
2021/10/30 01:46:07;;;;;;;11.23;8.07;;;3.60;97.70;;;;;;4992080;28;20498;-71
2021/10/30 01:48:35;;;;;;;11.88;7.78;;;3.60;97.80;;;;;;4981834;28;20045;-72
2021/10/30 01:51:02;;;;;;;11.38;8.05;;;3.60;97.80;;;;;;4985416;28;20031;-69
2021/10/30 01:53:28;;;;;;;10.65;8.07;;;3.60;97.90;;;;;;4966378;28;20026;-72
2021/10/30 01:55:54;;;;;;;11.32;7.80;;;3.60;97.90;;;;;;4974223;28;20033;-71
2021/10/30 01:58:20;;;;;;;11.27;7.82;;;3.60;97.80;;;;;;4972380;28;20022;-72
2021/10/30 02:00:48;;;;;;;11.73;8.07;;;3.50;97.70;;;;;;4988432;28;20495;-71
2021/10/30 02:03:14;;;;;;;10.07;7.82;;;3.50;97.70;;;;;;4985991;28;20030;-70
2021/10/30 02:05:39;;;;;;;12.30;8.05;;;3.50;97.70;;;;;;4991383;28;20398;-72
2021/10/30 02:08:05;;;;;;;12.60;8.65;;;3.40;97.70;;;;;;4989644;28;20027;-71
2021/10/30 02:10:31;;;;;;;10.20;7.47;;;3.40;97.80;;;;;;4991914;28;20479;-70
2021/10/30 02:12:56;;;;;;;11.23;7.85;;;3.40;97.80;;;;;;4987452;28;20101;-71
2021/10/30 02:15:22;;;;;;;11.75;8.10;;;3.40;97.80;;;;;;4991110;28;20037;-70
2021/10/30 02:17:48;;;;;;;11.13;8.10;;;3.40;97.70;;;;;;4990770;28;20515;-69
2021/10/30 02:20:14;;;;;;;11.95;8.35;;;3.40;97.70;;;;;;4990515;28;20018;-70
2021/10/30 02:22:39;;;;;;;11.52;7.53;;;3.30;97.70;;;;;;4973012;28;20430;-71
2021/10/30 02:25:07;;;;;;;12.18;8.07;;;3.30;97.80;;;;;;4973511;28;20069;-72
2021/10/30 02:27:32;;;;;;;10.00;7.93;;;3.30;97.70;;;;;;4991158;28;20096;-71
2021/10/30 02:29:58;;;;;;;10.60;7.57;;;3.30;97.60;;;;;;4987066;28;20019;-71
2021/10/30 02:32:24;;;;;;;10.57;7.45;;;3.20;97.60;;;;;;4987973;28;20030;-71
2021/10/30 02:34:49;;;;;;;11.50;8.13;;;3.20;97.60;;;;;;4972801;28;20031;-71
2021/10/30 02:37:15;;;;;;;10.50;7.97;;;3.10;97.70;;;;;;4982349;28;20109;-71
2021/10/30 02:39:41;;;;;;;10.07;7.55;;;3.10;97.70;;;;;;4990782;28;20022;-70
2021/10/30 02:42:06;;;;;;;9.98;7.38;;;3.10;97.70;;;;;;4990333;28;20129;-69
2021/10/30 02:44:32;;;;;;;10.75;7.70;;;3.10;97.70;;;;;;4989614;28;20045;-71
2021/10/30 02:46:59;;;;;;;10.50;7.82;;;3.00;97.80;;;;;;4987709;28;20030;-71
2021/10/30 02:49:24;;;;;;;10.27;7.47;;;3.00;97.80;;;;;;4988467;28;20071;-72
2021/10/30 02:51:50;;;;;;;10.30;7.75;;;3.00;97.70;;;;;;4987804;28;20101;-71
2021/10/30 02:54:16;;;;;;;10.85;7.47;;;3.00;97.70;;;;;;4971937;28;20033;-71
2021/10/30 02:56:41;;;;;;;12.27;8.25;;;3.00;97.70;;;;;;4990657;28;20447;-71
2021/10/30 02:59:07;;;;;;;11.40;7.95;;;3.00;97.80;;;;;;4990411;28;20447;-68
2021/10/30 03:01:33;;;;;;;10.88;8.02;;;3.00;97.80;;;;;;4982647;28;20372;-71
2021/10/30 03:03:58;;;;;;;10.88;8.10;;;3.00;97.80;;;;;;4975605;28;20390;-72
2021/10/30 03:06:26;;;;;;;12.07;8.10;;;3.00;98.10;;;;;;4972828;28;20033;-71
2021/10/30 03:08:51;;;;;;;11.30;7.82;;;3.00;97.80;;;;;;4990582;28;20036;-69
2021/10/30 03:11:17;;;;;;;11.27;7.95;;;2.90;97.80;;;;;;4989685;28;20438;-72
2021/10/30 03:13:44;;;;;;;10.63;7.85;;;2.90;97.70;;;;;;4989571;28;20085;-71
2021/10/30 03:16:10;;;;;;;13.95;7.68;;;2.90;97.70;;;;;;4973005;28;20035;-71
2021/10/30 03:18:36;;;;;;;12.70;7.82;;;2.90;97.80;;;;;;4972571;28;20084;-71
2021/10/30 03:21:01;;;;;;;13.38;8.40;;;2.90;97.80;;;;;;4982111;28;20407;-71
2021/10/30 03:23:27;;;;;;;9.95;7.55;;;2.90;97.80;;;;;;4989364;28;20125;-72
2021/10/30 03:25:52;;;;;;;10.50;7.82;;;2.80;97.60;;;;;;4990741;28;20153;-71
2021/10/30 03:28:18;;;;;;;10.07;7.43;;;2.80;97.70;;;;;;4986843;28;20038;-71
2021/10/30 03:30:44;;;;;;;11.13;8.07;;;2.80;97.70;;;;;;4989281;28;20203;-68
2021/10/30 03:33:10;;;;;;;10.00;7.85;;;2.70;97.70;;;;;;4964351;28;20027;-72
2021/10/30 03:35:36;;;;;;;10.30;7.60;;;2.80;97.80;;;;;;4990158;28;20029;-69
2021/10/30 03:38:02;;;;;;;10.65;7.63;;;2.70;97.80;;;;;;4991088;28;20038;-71
2021/10/30 03:40:27;;;;;;;11.90;8.45;;;2.70;97.70;;;;;;4993275;28;20032;-71
2021/10/30 03:42:53;;;;;;;10.73;7.43;;;2.70;97.70;;;;;;5017114;23;20062;-71
2021/10/30 03:45:18;;;;;;;10.77;8.07;;;2.70;97.70;;;;;;5012623;28;20422;-73
2021/10/30 03:47:44;;;;;;;12.90;8.32;;;2.70;97.70;;;;;;5010463;28;20054;-71
2021/10/30 03:50:10;;;;;;;10.18;7.78;;;2.60;97.70;;;;;;5009523;28;20073;-72
2021/10/30 03:52:36;;;;;;;10.48;7.63;;;2.60;97.70;;;;;;5000357;28;20406;-72
2021/10/30 03:55:02;;;;;;;12.10;8.43;;;2.60;97.70;;;;;;4994947;28;20025;-72
2021/10/30 03:57:28;;;;;;;13.65;8.57;;;2.60;97.70;;;;;;4994499;28;20385;-72
2021/10/30 03:59:54;;;;;;;10.70;7.70;;;2.60;97.80;;;;;;4978438;28;20113;-72
2021/10/30 04:02:19;;;;;;;12.02;8.68;;;2.60;97.90;;;;;;5001638;28;20505;-72
2021/10/30 04:04:45;;;;;;;12.18;8.15;;;2.60;97.90;;;;;;5012792;28;20087;-72
2021/10/30 04:07:11;;;;;;;10.70;8.05;;;2.60;97.90;;;;;;5008833;28;20034;-72
2021/10/30 04:09:37;;;;;;;12.30;8.25;;;2.70;97.90;;;;;;4977025;28;20026;-72
2021/10/30 04:12:03;;;;;;;11.93;8.00;;;2.60;97.80;;;;;;4994027;28;20057;-72
2021/10/30 04:14:28;;;;;;;11.05;7.65;;;2.60;97.80;;;;;;4979140;28;20474;-72
2021/10/30 04:16:54;;;;;;;11.48;8.35;;;2.60;97.80;;;;;;5013401;28;20025;-71
2021/10/30 04:19:19;;;;;;;10.95;8.27;;;2.60;97.70;;;;;;5013863;28;20022;-72
2021/10/30 04:21:45;;;;;;;11.45;7.72;;;2.50;97.70;;;;;;5013148;28;20030;-73
2021/10/30 04:24:11;;;;;;;11.85;8.18;;;2.50;97.70;;;;;;5012490;28;20061;-72
2021/10/30 04:26:37;;;;;;;13.25;8.77;;;2.50;97.80;;;;;;4992367;28;20125;-71
2021/10/30 04:29:03;;;;;;;12.20;8.55;;;2.40;97.80;;;;;;4994805;28;20034;-71
2021/10/30 04:31:30;;;;;;;12.82;8.60;;;2.50;97.90;;;;;;5013461;28;20425;-71
2021/10/30 04:34:00;;;;;;;15.02;10.02;;;2.50;97.90;;;;;;5012626;28;20371;-72
2021/10/30 04:36:28;;;;;;;12.57;8.77;;;2.50;98.00;;;;;;5007405;28;20050;-72
2021/10/30 04:38:54;;;;;;;12.30;8.48;;;2.50;98.10;;;;;;5000918;28;20113;-72
2021/10/30 04:41:21;;;;;;;13.27;8.77;;;2.60;98.10;;;;;;5005729;28;20022;-72
2021/10/30 04:43:47;;;;;;;14.80;9.02;;;2.60;98.10;;;;;;5003471;28;20025;-72
2021/10/30 04:46:15;;;;;;;12.50;8.20;;;2.60;98.10;;;;;;5011104;28;20029;-72
2021/10/30 04:48:41;;;;;;;13.68;8.82;;;2.60;98.10;;;;;;5010235;28;20023;-72
2021/10/30 04:51:07;;;;;;;14.45;9.20;;;2.70;98.10;;;;;;4990531;28;20038;-72
2021/10/30 04:53:42;;;;;;;15.85;9.15;;;2.70;98.20;;;;;;5007390;28;20022;-72
2021/10/30 04:56:08;;;;;;;15.10;9.85;;;2.70;98.10;;;;;;4989042;28;20215;-72
2021/10/30 04:58:35;;;;;;;13.73;8.85;;;2.70;98.10;;;;;;4991900;28;20049;-72
2021/10/30 05:01:01;;;;;;;13.95;8.98;;;2.70;98.10;;;;;;4995326;28;20084;-73
2021/10/30 05:03:28;;;;;;;12.45;8.43;;;2.70;98.10;;;;;;4982497;28;20041;-72
2021/10/30 05:05:54;;;;;;;11.75;8.20;;;2.70;98.10;;;;;;4995235;28;20115;-72
2021/10/30 05:08:19;;;;;;;11.82;8.07;;;2.60;98.00;;;;;;5012568;28;20077;-73
2021/10/30 05:10:45;;;;;;;11.40;8.15;;;2.60;98.00;;;;;;5012942;28;20022;-72
2021/10/30 05:13:11;;;;;;;11.82;8.40;;;2.60;98.00;;;;;;4988399;28;20033;-72
2021/10/30 05:15:36;;;;;;;12.05;8.82;;;2.60;98.10;;;;;;4994191;28;20033;-73
2021/10/30 05:18:02;;;;;;;13.43;9.13;;;2.60;98.00;;;;;;5009938;28;20100;-72
2021/10/30 05:20:28;;;;;;;11.90;8.55;;;2.60;98.10;;;;;;5012916;28;20092;-72
2021/10/30 05:22:55;;;;;;;14.07;8.30;;;2.60;98.10;;;;;;4993830;28;20038;-72
2021/10/30 05:25:24;;;;;;;12.77;8.65;;;2.70;98.20;;;;;;4993969;28;20026;-72
2021/10/30 05:27:50;;;;;;;13.75;9.20;;;2.70;98.20;;;;;;5004177;28;20363;-72
2021/10/30 05:30:16;;;;;;;13.95;9.30;;;2.70;98.10;;;;;;5016717;28;20088;-72
2021/10/30 05:32:41;;;;;;;15.50;9.45;;;2.70;98.10;;;;;;5011767;28;20042;-72
2021/10/30 05:35:07;;;;;;;14.52;9.52;;;2.70;98.20;;;;;;4994929;28;20018;-73
2021/10/30 05:37:33;;;;;;;15.13;9.93;;;2.70;98.20;;;;;;5012164;28;20029;-74
2021/10/30 05:39:59;;;;;;;13.80;9.70;;;2.80;98.20;;;;;;4994798;28;20033;-72
2021/10/30 05:42:25;;;;;;;16.45;9.48;;;2.80;98.20;;;;;;5010312;28;20036;-72
2021/10/30 05:44:51;;;;;;;14.93;9.77;;;2.80;98.20;;;;;;4997644;28;20672;-72
2021/10/30 05:47:18;;;;;;;14.73;9.55;;;2.80;98.10;;;;;;4993294;28;20030;-72
2021/10/30 05:49:44;;;;;;;15.07;9.57;;;2.80;98.10;;;;;;4992640;28;20026;-73
2021/10/30 05:52:12;;;;;;;14.48;9.35;;;2.80;98.10;;;;;;4989173;28;20099;-73
2021/10/30 05:54:38;;;;;;;14.70;10.07;;;2.80;98.10;;;;;;4993957;28;20021;-72
2021/10/30 05:57:07;;;;;;;18.08;10.13;;;2.90;98.10;;;;;;4995004;28;20053;-73
2021/10/30 05:59:33;;;;;;;16.02;9.93;;;2.80;98.20;;;;;;4991195;28;20411;-73
2021/10/30 06:01:59;;;;;;;16.02;9.68;;;2.90;98.20;;;;;;4993973;28;20026;-73
2021/10/30 06:04:24;;;;;;;14.40;9.90;;;2.90;98.30;;;;;;5011253;28;20405;-73
2021/10/30 06:06:50;;;;;;;14.27;9.75;;;2.90;98.30;;;;;;5012289;28;20092;-73
2021/10/30 06:09:17;;;;;;;14.25;9.25;;;2.90;98.30;;;;;;4994027;28;20433;-73
2021/10/30 06:11:43;;;;;;;17.55;10.65;;;2.90;98.30;;;;;;5012120;28;20025;-72
2021/10/30 06:14:10;;;;;;;16.63;9.90;;;3.00;98.40;;;;;;5011255;28;20026;-72
2021/10/30 06:16:36;;;;;;;15.68;10.07;;;2.90;98.30;;;;;;5010788;28;20025;-70
2021/10/30 06:19:02;;;;;;;17.08;10.20;;;3.00;98.40;;;;;;5011922;28;20026;-70
2021/10/30 06:21:28;;;;;;;16.10;9.68;;;3.00;98.40;;;;;;4995352;28;20038;-71
2021/10/30 06:23:54;;;;;;;15.35;10.15;;;3.00;98.50;;;;;;4982260;28;20026;-71
2021/10/30 06:26:20;;;;;;;16.52;10.27;;;3.00;98.40;;;;;;5008180;28;20060;-70
2021/10/30 06:28:49;;;;;;;16.45;10.60;;;3.00;98.40;;;;;;4993865;28;20064;-70
2021/10/30 06:31:15;;;;;;;16.65;10.68;;;3.10;98.50;;;;;;4994017;28;20072;-71
2021/10/30 06:33:41;;;;;;;17.13;10.45;;;3.10;98.50;;;;;;5000307;28;20029;-70
2021/10/30 06:36:08;;;;;;;16.50;9.95;;;3.20;98.50;;;;;;5011133;28;20033;-73
2021/10/30 06:38:34;;;;;;;16.08;9.85;;;3.20;98.50;;;;;;5011262;28;20076;-73
2021/10/30 06:41:01;;;;;;;14.65;9.30;;;3.40;98.50;;;;;;5011130;28;20053;-72
2021/10/30 06:43:28;;;;;;;12.30;8.75;;;3.50;98.40;;;;;;4992797;28;20034;-74
2021/10/30 06:45:54;;;;;;;11.05;8.07;;;3.70;98.40;;;;;;4982196;28;20111;-73
2021/10/30 06:48:19;;;;;;;10.80;7.93;;;4.00;98.50;;;;;;5011452;28;20037;-74
2021/10/30 06:50:45;;;;;;;8.75;6.75;;;4.30;98.00;;;;;;4993519;28;20022;-74
2021/10/30 06:53:10;;;;;;;7.82;6.57;;;4.70;97.80;;;;;;5009684;28;20026;-73
2021/10/30 06:55:36;;;;;;;8.75;6.50;;;5.00;97.50;;;;;;5010968;28;20026;-74
2021/10/30 06:58:02;;;;;;;9.85;6.68;;;5.20;97.50;;;;;;4992996;28;20032;-73
2021/10/30 07:00:27;;;;;;;8.32;6.68;;;5.20;97.40;;;;;;5010662;28;20037;-73
2021/10/30 07:02:53;;;;;;;9.27;7.72;;;5.20;97.50;;;;;;4998704;28;20772;-74
2021/10/30 07:05:20;;;;;;;12.88;8.00;;;5.10;97.50;;;;;;4974784;28;20169;-74
2021/10/30 07:07:46;;;;;;;11.60;8.57;;;5.10;97.40;;;;;;5010705;28;20053;-72
2021/10/30 07:10:12;;;;;;;11.20;7.72;;;5.30;97.30;;;;;;5010634;28;20454;-73
2021/10/30 07:12:38;;;;;;;11.85;7.80;;;5.60;97.10;;;;;;5009111;28;20101;-73
2021/10/30 07:15:06;;;;;;;10.80;7.50;;;5.90;97.00;;;;;;4987133;28;20018;-72
2021/10/30 07:17:32;;;;;;;9.38;7.20;;;6.00;97.00;;;;;;5009397;28;20085;-74
2021/10/30 07:19:57;;;;;;;10.18;7.07;;;6.20;96.90;;;;;;5003840;28;20203;-73
2021/10/30 07:22:23;;;;;;;10.15;7.57;;;6.40;96.80;;;;;;5010879;28;20037;-73
2021/10/30 07:24:49;;;;;;;8.75;7.15;;;6.60;96.60;;;;;;5003444;28;20077;-73
2021/10/30 07:27:17;;;;;;;10.82;7.35;;;6.90;96.50;;;;;;4998867;28;20056;-73
2021/10/30 07:29:46;;;;;;;9.07;7.20;;;7.20;96.40;;;;;;5022746;28;20014;-73
2021/10/30 07:32:13;;;;;;;8.68;7.00;;;7.40;96.40;;;;;;5013498;28;20029;-74
2021/10/30 07:34:39;;;;;;;8.20;6.80;;;7.60;96.50;;;;;;5011754;28;20022;-74
2021/10/30 07:37:05;;;;;;;7.88;6.60;;;7.60;96.70;;;;;;4988385;28;20042;-73
2021/10/30 07:39:30;;;;;;;8.32;6.97;;;7.60;96.90;;;;;;4991344;28;20026;-74
2021/10/30 07:41:56;;;;;;;9.32;7.50;;;7.70;96.80;;;;;;5004845;28;20029;-73
2021/10/30 07:44:21;;;;;;;8.23;7.32;;;7.70;96.90;;;;;;4990493;28;20026;-74
2021/10/30 07:46:47;;;;;;;9.50;7.28;;;7.80;96.90;;;;;;5010649;28;20018;-73
2021/10/30 07:49:13;;;;;;;7.68;6.55;;;7.80;97.00;;;;;;5009688;28;20037;-73
2021/10/30 07:51:39;;;;;;;8.73;6.82;;;7.90;97.00;;;;;;5012675;28;20045;-72
2021/10/30 07:54:04;;;;;;;12.02;7.07;;;8.00;96.90;;;;;;5014635;28;20022;-74
2021/10/30 07:56:30;;;;;;;9.48;7.50;;;8.00;96.90;;;;;;4997311;28;20076;-73
2021/10/30 07:58:56;;;;;;;8.63;6.95;;;8.00;96.70;;;;;;5008466;28;20026;-73
2021/10/30 08:01:22;;;;;;;9.73;7.20;;;8.10;96.70;;;;;;4993048;28;20026;-71
2021/10/30 08:03:47;;;;;;;8.45;7.25;;;8.00;96.50;;;;;;5009580;28;20076;-72
2021/10/30 08:06:13;;;;;;;13.48;6.95;;;8.10;96.60;;;;;;5010374;28;20058;-70
2021/10/30 08:08:39;;;;;;;8.27;6.90;;;8.20;96.70;;;;;;5009062;28;20026;-70
2021/10/30 08:11:04;;;;;;;9.07;7.32;;;8.30;96.60;;;;;;5004757;28;20030;-71
2021/10/30 08:13:30;;;;;;;10.80;7.03;;;8.30;96.60;;;;;;4999756;28;20025;-74
2021/10/30 08:15:56;;;;;;;8.20;6.68;;;8.30;96.50;;;;;;4987549;28;20025;-73
2021/10/30 08:18:22;;;;;;;10.50;7.63;;;8.30;96.20;;;;;;5009543;28;20052;-74
2021/10/30 08:20:48;;;;;;;8.25;6.07;;;8.30;96.10;;;;;;5010647;28;20113;-75
2021/10/30 08:23:14;;;;;;;11.65;7.60;;;8.20;96.10;;;;;;4992010;28;20462;-75
2021/10/30 08:25:39;;;;;;;9.52;7.38;;;8.20;96.00;;;;;;4999329;28;20094;-73
2021/10/30 08:28:05;;;;;;;8.90;7.10;;;8.10;96.00;;;;;;5002415;28;20402;-72
2021/10/30 08:30:31;;;;;;;9.40;7.32;;;8.10;96.10;;;;;;5008967;28;20038;-72
2021/10/30 08:32:57;;;;;;;10.85;7.50;;;8.10;96.10;;;;;;5013386;28;20026;-73
2021/10/30 08:35:23;;;;;;;10.98;7.03;;;8.10;96.10;;;;;;4996114;28;20056;-73
2021/10/30 08:37:49;;;;;;;9.95;7.50;;;8.00;96.20;;;;;;4996498;28;20237;-74
2021/10/30 08:40:17;;;;;;;9.90;7.30;;;8.10;96.20;;;;;;4990954;28;20026;-73
2021/10/30 08:42:47;;;;;;;10.25;7.70;;;8.10;96.20;;;;;;4986856;28;20037;-75
2021/10/30 08:45:17;;;;;;;10.30;7.43;;;8.10;96.30;;;;;;4987380;28;20040;-73
2021/10/30 08:47:45;;;;;;;9.93;6.97;;;8.20;96.30;;;;;;4999151;28;20021;-76
2021/10/30 08:50:11;;;;;;;9.73;7.30;;;8.20;96.40;;;;;;5016516;28;20108;-78
2021/10/30 08:52:38;;;;;;;10.40;7.60;;;8.30;96.30;;;;;;4983340;28;20050;-72
2021/10/30 08:55:06;;;;;;;10.00;7.57;;;8.30;96.60;;;;;;5013363;28;20053;-76
2021/10/30 08:57:31;;;;;;;10.02;7.55;;;8.40;96.30;;;;;;4995595;28;20100;-74
2021/10/30 09:00:20;;;;;;;10.88;7.18;;;8.40;96.30;;;;;;4996350;28;20056;-72
2021/10/30 09:02:54;;;;;;;10.00;7.53;;;8.50;96.40;;;;;;4994155;28;20058;-73
2021/10/30 09:05:23;;;;;;;11.38;8.18;;;8.50;96.40;;;;;;5013750;28;20026;-74
2021/10/30 09:07:55;;;;;;;9.52;8.05;;;8.60;96.40;;;;;;4995510;28;20117;-72
2021/10/30 09:10:27;;;;;;;14.07;9.52;;;8.60;96.40;;;;;;5013726;28;20482;-72
2021/10/30 09:12:55;;;;;;;12.30;8.48;;;8.70;96.50;;;;;;5006399;28;20034;-72
2021/10/30 09:15:46;;;;;;;13.20;7.80;;;8.80;96.50;;;;;;4996688;28;20039;-71
2021/10/30 09:18:28;;;;;;;12.05;8.50;;;8.90;96.40;;;;;;5002818;28;20025;-69
2021/10/30 09:20:56;;;;;;;13.98;8.18;;;9.00;96.20;;;;;;5013142;28;20026;-71
2021/10/30 09:23:26;;;;;;;13.40;8.32;;;9.00;96.20;;;;;;4989786;28;20037;-70
2021/10/30 09:25:55;;;;;;;12.57;8.60;;;9.10;96.20;;;;;;4993574;28;20054;-71
2021/10/30 09:28:26;;;;;;;13.57;8.10;;;9.10;96.10;;;;;;4998761;28;20026;-70
2021/10/30 09:31:04;;;;;;;12.68;8.45;;;9.20;96.10;;;;;;4990275;28;20052;-68
2021/10/30 09:33:32;;;;;;;13.75;8.85;;;9.30;96.10;;;;;;5011761;28;20461;-71
2021/10/30 09:36:07;;;;;;;12.70;9.10;;;9.30;96.10;;;;;;4995241;28;20030;-70
2021/10/30 09:38:39;;;;;;;13.48;8.90;;;9.40;96.10;;;;;;4991002;28;20057;-70
2021/10/30 09:41:32;;;;;;;14.57;9.73;;;9.40;96.10;;;;;;4977206;28;20109;-68
2021/10/30 09:44:07;;;;;;;14.15;9.50;;;9.40;96.10;;;;;;4998714;28;20038;-68
2021/10/30 09:46:44;;;;;;;14.40;9.73;;;9.50;96.20;;;;;;5012336;28;20022;-68
2021/10/30 09:49:13;;;;;;;17.73;9.73;;;9.60;96.20;;;;;;4992534;28;20096;-69
2021/10/30 09:51:40;;;;;;;16.90;9.93;;;9.70;96.30;;;;;;4999677;28;20031;-69
2021/10/30 09:54:06;;;;;;;16.05;10.45;;;9.80;96.20;;;;;;5008877;28;20101;-70
2021/10/30 09:56:40;;;;;;;16.42;10.27;;;9.90;96.10;;;;;;5004836;28;20022;-72
2021/10/30 09:59:12;;;;;;;16.23;10.63;;;10.00;96.10;;;;;;5009960;28;20386;-71
2021/10/30 10:01:37;;;;;;;16.92;10.43;;;10.00;96.10;;;;;;4993965;28;20026;-72
2021/10/30 10:04:04;;;;;;;16.77;11.10;;;10.10;96.10;;;;;;4992954;28;20475;-70
2021/10/30 10:06:32;;;;;;;17.15;10.90;;;10.20;96.00;;;;;;4993629;28;20406;-74
2021/10/30 10:08:58;;;;;;;17.15;11.25;;;10.30;96.00;;;;;;5007246;28;20483;-72
2021/10/30 10:11:25;;;;;;;17.55;10.45;;;10.30;95.90;;;;;;4980332;28;20113;-73
2021/10/30 10:13:51;;;;;;;17.10;11.48;;;10.30;95.90;;;;;;4991439;28;20026;-72
2021/10/30 10:16:24;;;;;;;15.95;10.30;;;10.30;95.80;;;;;;4981445;28;20026;-74
2021/10/30 10:18:51;;;;;;;16.52;10.75;;;10.30;95.80;;;;;;4978494;28;20117;-73
2021/10/30 10:21:33;;;;;;;18.50;11.60;;;10.30;95.80;;;;;;4975263;28;20394;-78
2021/10/30 10:23:59;;;;;;;;;;;10.40;95.90;;;;;;4991803;28;20030;-72
2021/10/30 10:26:57;;;;;;;68.85;37.72;;;10.40;95.90;;;;;;4991753;28;20442;-69
2021/10/30 10:29:35;;;;;;;19.25;12.48;;;10.30;96.00;;;;;;4999277;28;20021;-71
2021/10/30 10:32:20;;;;;;;21.30;12.80;;;10.40;96.10;;;;;;4991556;28;20026;-71
2021/10/30 10:34:47;;;;;;;16.45;11.63;;;10.40;96.00;;;;;;5010319;28;20105;-71
2021/10/30 10:37:12;;;;;;;19.52;11.90;;;10.40;96.00;;;;;;4991442;28;20081;-72
2021/10/30 10:39:47;;;;;;;23.70;13.50;;;10.40;96.00;;;;;;4993109;28;20026;-72
2021/10/30 10:42:37;;;;;;;18.05;11.93;;;10.40;96.00;;;;;;4993602;28;20025;-72
2021/10/30 10:45:16;;;;;;;21.90;11.98;;;10.50;96.00;;;;;;4993188;28;20026;-73
2021/10/30 10:47:43;;;;;;;18.33;11.77;;;10.50;96.00;;;;;;4993505;28;20048;-72
2021/10/30 10:50:12;;;;;;;18.88;11.07;;;10.50;96.00;;;;;;5010079;28;20498;-72
2021/10/30 10:52:44;;;;;;;17.05;11.52;;;10.50;95.90;;;;;;5006945;28;20021;-71
2021/10/30 10:55:10;;;;;;;21.17;12.10;;;10.40;95.70;;;;;;4994120;28;20445;-72
2021/10/30 10:57:45;;;;;;;15.57;10.82;;;10.40;95.80;;;;;;4993848;28;20161;-73
2021/10/30 11:00:15;;;;;;;18.00;11.18;;;10.40;95.80;;;;;;5022340;28;20026;-71
2021/10/30 11:02:47;;;;;;;18.52;11.57;;;10.40;95.90;;;;;;4992312;28;20086;-72
2021/10/30 11:05:20;;;;;;;16.35;11.05;;;10.40;95.90;;;;;;4993167;28;20026;-72
2021/10/30 11:07:49;;;;;;;18.65;11.18;;;10.40;95.90;;;;;;5010611;28;20021;-71
2021/10/30 11:10:33;;;;;;;15.65;10.98;;;10.30;95.80;;;;;;5011029;28;20030;-71
2021/10/30 11:13:01;;;;;;;17.42;11.25;;;10.30;95.80;;;;;;4984723;28;20457;-72
2021/10/30 11:15:42;;;;;;;15.95;10.90;;;10.30;95.80;;;;;;5013968;28;20032;-72
2021/10/30 11:18:16;;;;;;;16.10;10.73;;;10.30;95.80;;;;;;5010754;28;20022;-72
2021/10/30 11:20:50;;;;;;;16.00;10.43;;;10.20;95.80;;;;;;4990312;28;20481;-72
2021/10/30 11:23:30;;;;;;;15.32;11.13;;;10.20;95.80;;;;;;4997293;28;20117;-72
2021/10/30 11:26:07;;;;;;;17.77;11.88;;;10.20;95.90;;;;;;4984185;28;20042;-72
2021/10/30 11:28:33;;;;;;;16.67;10.70;;;10.20;96.00;;;;;;4997899;28;20076;-72
2021/10/30 11:31:09;;;;;;;18.52;11.70;;;10.10;95.90;;;;;;5010503;28;20017;-72
2021/10/30 11:33:35;;;;;;;14.68;10.77;;;10.10;95.80;;;;;;4987810;28;20109;-72
2021/10/30 11:36:08;;;;;;;17.80;11.40;;;10.00;95.80;;;;;;4988677;28;20442;-72
2021/10/30 11:38:44;;;;;;;18.60;11.85;;;10.00;95.90;;;;;;4973670;28;20141;-72
2021/10/30 11:41:31;;;;;;;16.50;11.65;;;10.00;95.90;;;;;;4994915;28;20105;-72
2021/10/30 11:44:00;;;;;;;18.67;11.82;;;10.00;95.90;;;;;;4974559;28;20100;-71
2021/10/30 11:46:26;;;;;;;17.63;11.70;;;9.90;95.90;;;;;;5000225;28;20058;-72
2021/10/30 11:48:57;;;;;;;17.20;11.82;;;9.90;95.90;;;;;;5007991;28;20057;-72
2021/10/30 11:51:32;;;;;;;17.08;11.43;;;9.90;96.00;;;;;;4997159;28;20094;-72
2021/10/30 11:53:59;;;;;;;16.48;11.57;;;9.90;96.10;;;;;;4974283;28;20018;-71
2021/10/30 11:56:28;;;;;;;18.80;11.65;;;9.90;96.10;;;;;;5013858;28;20521;-72
2021/10/30 11:59:06;;;;;;;19.13;11.82;;;10.00;96.30;;;;;;5007272;28;20526;-72
2021/10/30 12:01:41;;;;;;;18.35;11.65;;;10.00;96.20;;;;;;4995210;28;20461;-71
2021/10/30 12:04:14;;;;;;;19.48;11.90;;;10.00;96.20;;;;;;5003359;28;20058;-73
2021/10/30 12:06:43;;;;;;;20.17;11.73;;;10.00;96.10;;;;;;4994946;28;20031;-71
2021/10/30 12:09:29;;;;;;;17.58;11.50;;;10.10;96.20;;;;;;4981652;28;20055;-73
2021/10/30 12:12:00;;;;;;;19.33;11.98;;;10.10;96.20;;;;;;4984943;28;20510;-74
2021/10/30 12:14:32;;;;;;;18.95;12.18;;;10.10;96.20;;;;;;5004626;28;20076;-71
2021/10/30 12:17:06;;;;;;;20.05;12.75;;;10.10;96.20;;;;;;5007040;28;20033;-73
2021/10/30 12:19:35;;;;;;;18.83;12.63;;;10.10;96.10;;;;;;5013895;28;20021;-71
2021/10/30 12:22:05;;;;;;;20.02;12.98;;;10.10;96.10;;;;;;4983169;28;20058;-68
2021/10/30 12:24:31;;;;;;;21.20;12.50;;;10.10;96.10;;;;;;5007360;28;20030;-71
2021/10/30 12:27:05;;;;;;;104.20;61.13;;;10.10;96.10;;;;;;4995302;28;20022;-69
2021/10/30 12:29:32;;;;;;;21.58;14.00;;;10.10;96.20;;;;;;5011399;28;20088;-67
2021/10/30 12:32:03;;;;;;;19.13;12.90;;;10.10;96.20;;;;;;4995934;28;20502;-71
2021/10/30 12:34:31;;;;;;;18.35;12.30;;;10.10;96.20;;;;;;5001848;28;20026;-69
2021/10/30 12:36:59;;;;;;;21.55;12.43;;;10.10;96.20;;;;;;5013195;28;20434;-70
2021/10/30 12:39:26;;;;;;;29.10;17.73;;;10.10;96.20;;;;;;5007101;28;20036;-70
2021/10/30 12:42:03;;;;;;;21.85;13.50;;;10.10;96.10;;;;;;5010815;28;20022;-70
2021/10/30 12:44:32;;;;;;;21.55;13.32;;;10.10;96.10;;;;;;5002334;28;20030;-70
2021/10/30 12:47:09;;;;;;;22.98;13.80;;;10.10;96.10;;;;;;4995453;28;20053;-69